sensor_id;sensor_type;location;lat;lon;timestamp;P1;durP1;ratioP1;P2;durP2;ratioP2
68054;SDS011;54841;43.616;1.460;2022-07-30T00:01:31;3.70;;;2.55;;
68054;SDS011;54841;43.616;1.460;2022-07-30T00:03:58;3.10;;;1.75;;
68054;SDS011;54841;43.616;1.460;2022-07-30T00:06:23;3.13;;;1.70;;
68054;SDS011;54841;43.616;1.460;2022-07-30T00:08:49;3.90;;;1.80;;
68054;SDS011;54841;43.616;1.460;2022-07-30T00:11:14;6.05;;;1.50;;
68054;SDS011;54841;43.616;1.460;2022-07-30T00:13:39;4.10;;;1.90;;
68054;SDS011;54841;43.616;1.460;2022-07-30T00:16:05;5.18;;;1.73;;
68054;SDS011;54841;43.616;1.460;2022-07-30T00:18:31;4.05;;;1.80;;
68054;SDS011;54841;43.616;1.460;2022-07-30T00:20:57;3.60;;;1.92;;
68054;SDS011;54841;43.616;1.460;2022-07-30T00:23:22;5.90;;;2.38;;
68054;SDS011;54841;43.616;1.460;2022-07-30T00:25:47;3.15;;;1.70;;
68054;SDS011;54841;43.616;1.460;2022-07-30T00:28:13;4.53;;;2.22;;
68054;SDS011;54841;43.616;1.460;2022-07-30T00:30:38;5.20;;;2.10;;
68054;SDS011;54841;43.616;1.460;2022-07-30T00:33:04;4.50;;;1.90;;
68054;SDS011;54841;43.616;1.460;2022-07-30T00:35:30;5.50;;;1.80;;
68054;SDS011;54841;43.616;1.460;2022-07-30T00:37:55;3.90;;;2.08;;
68054;SDS011;54841;43.616;1.460;2022-07-30T00:40:21;2.28;;;1.95;;
68054;SDS011;54841;43.616;1.460;2022-07-30T00:42:46;4.20;;;1.80;;
68054;SDS011;54841;43.616;1.460;2022-07-30T00:45:13;3.35;;;1.90;;
68054;SDS011;54841;43.616;1.460;2022-07-30T00:47:40;3.50;;;1.63;;
68054;SDS011;54841;43.616;1.460;2022-07-30T00:50:06;5.22;;;1.70;;
68054;SDS011;54841;43.616;1.460;2022-07-30T00:52:33;1.40;;;1.20;;
68054;SDS011;54841;43.616;1.460;2022-07-30T00:54:59;2.80;;;1.58;;
68054;SDS011;54841;43.616;1.460;2022-07-30T00:57:25;4.15;;;1.85;;
68054;SDS011;54841;43.616;1.460;2022-07-30T00:59:52;2.35;;;1.80;;
68054;SDS011;54841;43.616;1.460;2022-07-30T01:02:18;3.58;;;1.88;;
68054;SDS011;54841;43.616;1.460;2022-07-30T01:04:43;3.75;;;1.85;;
68054;SDS011;54841;43.616;1.460;2022-07-30T01:07:09;3.17;;;1.50;;
68054;SDS011;54841;43.616;1.460;2022-07-30T01:09:35;4.32;;;1.83;;
68054;SDS011;54841;43.616;1.460;2022-07-30T01:12:00;1.80;;;1.35;;
68054;SDS011;54841;43.616;1.460;2022-07-30T01:14:26;3.88;;;1.90;;
68054;SDS011;54841;43.616;1.460;2022-07-30T01:16:52;3.85;;;1.50;;
68054;SDS011;54841;43.616;1.460;2022-07-30T01:19:22;3.95;;;1.75;;
68054;SDS011;54841;43.616;1.460;2022-07-30T01:22:09;2.83;;;2.20;;
68054;SDS011;54841;43.616;1.460;2022-07-30T01:24:42;4.55;;;1.88;;
68054;SDS011;54841;43.616;1.460;2022-07-30T01:27:10;3.47;;;1.95;;
68054;SDS011;54841;43.616;1.460;2022-07-30T01:29:37;3.50;;;1.80;;
68054;SDS011;54841;43.616;1.460;2022-07-30T01:32:04;1.85;;;1.60;;
68054;SDS011;54841;43.616;1.460;2022-07-30T01:34:32;4.75;;;1.58;;
68054;SDS011;54841;43.616;1.460;2022-07-30T01:36:58;4.32;;;1.88;;
68054;SDS011;54841;43.616;1.460;2022-07-30T01:39:25;4.30;;;1.75;;
68054;SDS011;54841;43.616;1.460;2022-07-30T01:41:54;2.65;;;1.58;;
68054;SDS011;54841;43.616;1.460;2022-07-30T01:44:22;3.53;;;1.65;;
68054;SDS011;54841;43.616;1.460;2022-07-30T01:46:48;3.58;;;1.67;;
68054;SDS011;54841;43.616;1.460;2022-07-30T01:49:14;4.53;;;1.73;;
68054;SDS011;54841;43.616;1.460;2022-07-30T01:51:40;4.68;;;1.80;;
68054;SDS011;54841;43.616;1.460;2022-07-30T01:54:07;3.38;;;1.70;;
68054;SDS011;54841;43.616;1.460;2022-07-30T01:56:33;2.22;;;1.45;;
68054;SDS011;54841;43.616;1.460;2022-07-30T01:59:00;4.47;;;1.75;;
68054;SDS011;54841;43.616;1.460;2022-07-30T02:01:25;4.20;;;2.00;;
68054;SDS011;54841;43.616;1.460;2022-07-30T02:03:51;3.28;;;1.70;;
68054;SDS011;54841;43.616;1.460;2022-07-30T02:06:19;3.90;;;1.77;;
68054;SDS011;54841;43.616;1.460;2022-07-30T02:08:57;2.78;;;1.60;;
68054;SDS011;54841;43.616;1.460;2022-07-30T02:11:23;3.10;;;1.40;;
68054;SDS011;54841;43.616;1.460;2022-07-30T02:14:18;4.57;;;2.08;;
68054;SDS011;54841;43.616;1.460;2022-07-30T02:16:48;5.38;;;2.10;;
68054;SDS011;54841;43.616;1.460;2022-07-30T02:19:16;1.65;;;1.30;;
68054;SDS011;54841;43.616;1.460;2022-07-30T02:21:51;2.53;;;1.50;;
68054;SDS011;54841;43.616;1.460;2022-07-30T02:24:29;4.63;;;1.50;;
68054;SDS011;54841;43.616;1.460;2022-07-30T02:27:00;2.38;;;1.73;;
68054;SDS011;54841;43.616;1.460;2022-07-30T02:29:30;2.20;;;1.40;;
68054;SDS011;54841;43.616;1.460;2022-07-30T02:31:56;5.78;;;1.40;;
68054;SDS011;54841;43.616;1.460;2022-07-30T02:34:22;4.82;;;1.55;;
68054;SDS011;54841;43.616;1.460;2022-07-30T02:36:48;2.20;;;1.25;;
68054;SDS011;54841;43.616;1.460;2022-07-30T02:39:15;3.22;;;1.60;;
68054;SDS011;54841;43.616;1.460;2022-07-30T02:41:42;2.45;;;1.60;;
68054;SDS011;54841;43.616;1.460;2022-07-30T02:44:09;1.73;;;1.55;;
68054;SDS011;54841;43.616;1.460;2022-07-30T02:46:35;3.30;;;1.90;;
68054;SDS011;54841;43.616;1.460;2022-07-30T02:49:02;2.47;;;1.52;;
68054;SDS011;54841;43.616;1.460;2022-07-30T02:51:28;4.18;;;1.60;;
68054;SDS011;54841;43.616;1.460;2022-07-30T02:53:54;3.95;;;1.63;;
68054;SDS011;54841;43.616;1.460;2022-07-30T02:56:21;2.38;;;1.50;;
68054;SDS011;54841;43.616;1.460;2022-07-30T02:58:46;3.83;;;1.48;;
68054;SDS011;54841;43.616;1.460;2022-07-30T03:01:13;2.60;;;1.60;;
68054;SDS011;54841;43.616;1.460;2022-07-30T03:03:41;4.05;;;1.45;;
68054;SDS011;54841;43.616;1.460;2022-07-30T03:06:08;2.30;;;1.50;;
68054;SDS011;54841;43.616;1.460;2022-07-30T03:08:33;4.47;;;1.20;;
68054;SDS011;54841;43.616;1.460;2022-07-30T03:10:59;1.83;;;1.42;;
68054;SDS011;54841;43.616;1.460;2022-07-30T03:13:24;3.17;;;1.63;;
68054;SDS011;54841;43.616;1.460;2022-07-30T03:15:50;3.83;;;2.08;;
68054;SDS011;54841;43.616;1.460;2022-07-30T03:18:17;2.67;;;1.40;;
68054;SDS011;54841;43.616;1.460;2022-07-30T03:20:45;1.85;;;1.20;;
68054;SDS011;54841;43.616;1.460;2022-07-30T03:23:11;2.10;;;0.95;;
68054;SDS011;54841;43.616;1.460;2022-07-30T03:25:40;3.35;;;1.35;;
68054;SDS011;54841;43.616;1.460;2022-07-30T03:28:06;2.33;;;1.40;;
68054;SDS011;54841;43.616;1.460;2022-07-30T03:30:32;4.88;;;1.50;;
68054;SDS011;54841;43.616;1.460;2022-07-30T03:32:58;2.20;;;1.20;;
68054;SDS011;54841;43.616;1.460;2022-07-30T03:35:23;2.75;;;1.25;;
68054;SDS011;54841;43.616;1.460;2022-07-30T03:37:50;2.80;;;1.30;;
68054;SDS011;54841;43.616;1.460;2022-07-30T03:40:16;1.65;;;1.30;;
68054;SDS011;54841;43.616;1.460;2022-07-30T03:42:42;2.58;;;1.58;;
68054;SDS011;54841;43.616;1.460;2022-07-30T03:45:09;1.92;;;1.40;;
68054;SDS011;54841;43.616;1.460;2022-07-30T03:47:38;3.20;;;1.30;;
68054;SDS011;54841;43.616;1.460;2022-07-30T03:50:05;3.53;;;1.60;;
68054;SDS011;54841;43.616;1.460;2022-07-30T03:52:32;5.20;;;1.20;;
68054;SDS011;54841;43.616;1.460;2022-07-30T03:54:59;2.33;;;1.10;;
68054;SDS011;54841;43.616;1.460;2022-07-30T03:57:25;2.60;;;1.27;;
68054;SDS011;54841;43.616;1.460;2022-07-30T03:59:51;2.58;;;1.20;;
68054;SDS011;54841;43.616;1.460;2022-07-30T04:02:16;1.67;;;1.13;;
68054;SDS011;54841;43.616;1.460;2022-07-30T04:04:42;2.50;;;1.02;;
68054;SDS011;54841;43.616;1.460;2022-07-30T04:07:08;4.10;;;1.27;;
68054;SDS011;54841;43.616;1.460;2022-07-30T04:09:33;3.72;;;1.35;;
68054;SDS011;54841;43.616;1.460;2022-07-30T04:11:59;1.75;;;1.00;;
68054;SDS011;54841;43.616;1.460;2022-07-30T04:14:24;5.07;;;1.63;;
68054;SDS011;54841;43.616;1.460;2022-07-30T04:17:01;3.65;;;1.27;;
68054;SDS011;54841;43.616;1.460;2022-07-30T04:19:28;2.42;;;1.13;;
68054;SDS011;54841;43.616;1.460;2022-07-30T04:21:56;2.95;;;1.35;;
68054;SDS011;54841;43.616;1.460;2022-07-30T04:24:23;1.95;;;0.98;;
68054;SDS011;54841;43.616;1.460;2022-07-30T04:26:50;1.52;;;1.08;;
68054;SDS011;54841;43.616;1.460;2022-07-30T04:29:16;2.90;;;1.00;;
68054;SDS011;54841;43.616;1.460;2022-07-30T04:31:42;3.97;;;1.48;;
68054;SDS011;54841;43.616;1.460;2022-07-30T04:34:08;1.88;;;1.08;;
68054;SDS011;54841;43.616;1.460;2022-07-30T04:36:37;3.13;;;1.30;;
68054;SDS011;54841;43.616;1.460;2022-07-30T04:39:03;3.38;;;1.38;;
68054;SDS011;54841;43.616;1.460;2022-07-30T04:41:28;3.92;;;1.20;;
68054;SDS011;54841;43.616;1.460;2022-07-30T04:43:54;5.43;;;1.25;;
68054;SDS011;54841;43.616;1.460;2022-07-30T04:46:19;3.03;;;1.10;;
68054;SDS011;54841;43.616;1.460;2022-07-30T04:48:45;3.17;;;1.50;;
68054;SDS011;54841;43.616;1.460;2022-07-30T04:51:11;2.80;;;1.17;;
68054;SDS011;54841;43.616;1.460;2022-07-30T04:53:45;5.40;;;1.35;;
68054;SDS011;54841;43.616;1.460;2022-07-30T04:56:11;3.03;;;2.10;;
68054;SDS011;54841;43.616;1.460;2022-07-30T04:58:38;5.88;;;1.80;;
68054;SDS011;54841;43.616;1.460;2022-07-30T05:01:05;2.40;;;1.20;;
68054;SDS011;54841;43.616;1.460;2022-07-30T05:03:31;3.47;;;1.08;;
68054;SDS011;54841;43.616;1.460;2022-07-30T05:05:57;5.03;;;1.10;;
68054;SDS011;54841;43.616;1.460;2022-07-30T05:08:23;4.28;;;1.40;;
68054;SDS011;54841;43.616;1.460;2022-07-30T05:10:49;2.72;;;1.05;;
68054;SDS011;54841;43.616;1.460;2022-07-30T05:13:14;1.42;;;1.00;;
68054;SDS011;54841;43.616;1.460;2022-07-30T05:15:40;1.63;;;1.10;;
68054;SDS011;54841;43.616;1.460;2022-07-30T05:18:08;2.50;;;0.98;;
68054;SDS011;54841;43.616;1.460;2022-07-30T05:20:34;1.95;;;1.08;;
68054;SDS011;54841;43.616;1.460;2022-07-30T05:23:00;1.88;;;1.00;;
68054;SDS011;54841;43.616;1.460;2022-07-30T05:25:26;1.45;;;1.10;;
68054;SDS011;54841;43.616;1.460;2022-07-30T05:27:51;1.88;;;1.10;;
68054;SDS011;54841;43.616;1.460;2022-07-30T05:30:17;1.73;;;0.93;;
68054;SDS011;54841;43.616;1.460;2022-07-30T05:32:42;1.65;;;0.88;;
68054;SDS011;54841;43.616;1.460;2022-07-30T05:35:08;1.55;;;0.88;;
68054;SDS011;54841;43.616;1.460;2022-07-30T05:37:33;1.75;;;0.95;;
68054;SDS011;54841;43.616;1.460;2022-07-30T05:39:59;3.10;;;1.10;;
68054;SDS011;54841;43.616;1.460;2022-07-30T05:42:24;1.17;;;0.80;;
68054;SDS011;54841;43.616;1.460;2022-07-30T05:44:50;1.77;;;1.00;;
68054;SDS011;54841;43.616;1.460;2022-07-30T05:47:15;2.83;;;1.00;;
68054;SDS011;54841;43.616;1.460;2022-07-30T05:49:44;2.03;;;0.95;;
68054;SDS011;54841;43.616;1.460;2022-07-30T05:52:10;2.72;;;0.70;;
68054;SDS011;54841;43.616;1.460;2022-07-30T05:54:35;1.83;;;0.93;;
68054;SDS011;54841;43.616;1.460;2022-07-30T05:57:01;2.60;;;0.80;;
68054;SDS011;54841;43.616;1.460;2022-07-30T05:59:26;1.20;;;0.70;;
68054;SDS011;54841;43.616;1.460;2022-07-30T06:01:52;1.55;;;0.80;;
68054;SDS011;54841;43.616;1.460;2022-07-30T06:04:17;1.00;;;0.70;;
68054;SDS011;54841;43.616;1.460;2022-07-30T06:06:43;0.70;;;0.70;;
68054;SDS011;54841;43.616;1.460;2022-07-30T06:09:08;2.20;;;1.23;;
68054;SDS011;54841;43.616;1.460;2022-07-30T06:11:33;0.85;;;0.70;;
68054;SDS011;54841;43.616;1.460;2022-07-30T06:13:59;1.17;;;0.63;;
68054;SDS011;54841;43.616;1.460;2022-07-30T06:16:25;0.98;;;0.73;;
68054;SDS011;54841;43.616;1.460;2022-07-30T06:18:50;0.93;;;0.82;;
68054;SDS011;54841;43.616;1.460;2022-07-30T06:21:15;2.03;;;0.70;;
68054;SDS011;54841;43.616;1.460;2022-07-30T06:23:41;1.67;;;0.75;;
68054;SDS011;54841;43.616;1.460;2022-07-30T06:26:06;2.78;;;0.90;;
68054;SDS011;54841;43.616;1.460;2022-07-30T06:28:32;0.82;;;0.82;;
68054;SDS011;54841;43.616;1.460;2022-07-30T06:30:57;2.38;;;0.85;;
68054;SDS011;54841;43.616;1.460;2022-07-30T06:33:23;2.65;;;0.98;;
68054;SDS011;54841;43.616;1.460;2022-07-30T06:35:48;1.88;;;0.90;;
68054;SDS011;54841;43.616;1.460;2022-07-30T06:38:13;1.40;;;0.77;;
68054;SDS011;54841;43.616;1.460;2022-07-30T06:40:39;3.70;;;1.00;;
68054;SDS011;54841;43.616;1.460;2022-07-30T06:43:04;2.20;;;0.90;;
68054;SDS011;54841;43.616;1.460;2022-07-30T06:45:30;1.45;;;0.73;;
68054;SDS011;54841;43.616;1.460;2022-07-30T06:47:56;0.88;;;0.60;;
68054;SDS011;54841;43.616;1.460;2022-07-30T06:50:22;2.50;;;0.80;;
68054;SDS011;54841;43.616;1.460;2022-07-30T06:52:48;1.30;;;0.75;;
68054;SDS011;54841;43.616;1.460;2022-07-30T06:55:13;0.98;;;0.70;;
68054;SDS011;54841;43.616;1.460;2022-07-30T06:57:39;1.48;;;0.73;;
68054;SDS011;54841;43.616;1.460;2022-07-30T07:00:04;1.83;;;0.80;;
68054;SDS011;54841;43.616;1.460;2022-07-30T07:02:32;1.08;;;0.80;;
68054;SDS011;54841;43.616;1.460;2022-07-30T07:04:58;1.23;;;0.70;;
68054;SDS011;54841;43.616;1.460;2022-07-30T07:07:23;1.60;;;0.75;;
68054;SDS011;54841;43.616;1.460;2022-07-30T07:09:48;3.22;;;0.85;;
68054;SDS011;54841;43.616;1.460;2022-07-30T07:12:14;1.33;;;0.90;;
68054;SDS011;54841;43.616;1.460;2022-07-30T07:14:39;1.77;;;1.00;;
68054;SDS011;54841;43.616;1.460;2022-07-30T07:17:05;3.42;;;0.95;;
68054;SDS011;54841;43.616;1.460;2022-07-30T07:19:30;2.55;;;0.70;;
68054;SDS011;54841;43.616;1.460;2022-07-30T07:21:56;2.05;;;0.80;;
68054;SDS011;54841;43.616;1.460;2022-07-30T07:24:22;1.55;;;0.90;;
68054;SDS011;54841;43.616;1.460;2022-07-30T07:26:47;2.60;;;0.77;;
68054;SDS011;54841;43.616;1.460;2022-07-30T07:29:13;2.88;;;1.02;;
68054;SDS011;54841;43.616;1.460;2022-07-30T07:31:38;3.58;;;0.82;;
68054;SDS011;54841;43.616;1.460;2022-07-30T07:34:04;2.03;;;0.88;;
68054;SDS011;54841;43.616;1.460;2022-07-30T07:36:30;1.95;;;0.93;;
68054;SDS011;54841;43.616;1.460;2022-07-30T07:38:55;0.70;;;0.60;;
68054;SDS011;54841;43.616;1.460;2022-07-30T07:41:21;1.88;;;0.80;;
68054;SDS011;54841;43.616;1.460;2022-07-30T07:43:46;2.25;;;1.42;;
68054;SDS011;54841;43.616;1.460;2022-07-30T07:46:12;1.42;;;0.98;;
68054;SDS011;54841;43.616;1.460;2022-07-30T07:48:40;1.55;;;1.00;;
68054;SDS011;54841;43.616;1.460;2022-07-30T07:51:06;0.77;;;0.70;;
68054;SDS011;54841;43.616;1.460;2022-07-30T07:53:32;3.75;;;0.90;;
68054;SDS011;54841;43.616;1.460;2022-07-30T07:55:57;1.00;;;0.90;;
68054;SDS011;54841;43.616;1.460;2022-07-30T07:58:23;1.23;;;0.77;;
68054;SDS011;54841;43.616;1.460;2022-07-30T08:00:49;2.33;;;0.90;;
68054;SDS011;54841;43.616;1.460;2022-07-30T08:03:14;1.98;;;0.90;;
68054;SDS011;54841;43.616;1.460;2022-07-30T08:05:40;3.08;;;0.90;;
68054;SDS011;54841;43.616;1.460;2022-07-30T08:08:05;2.75;;;0.90;;
68054;SDS011;54841;43.616;1.460;2022-07-30T08:10:31;3.70;;;1.05;;
68054;SDS011;54841;43.616;1.460;2022-07-30T08:12:56;2.88;;;0.88;;
68054;SDS011;54841;43.616;1.460;2022-07-30T08:15:22;1.10;;;0.90;;
68054;SDS011;54841;43.616;1.460;2022-07-30T08:17:48;2.15;;;0.90;;
68054;SDS011;54841;43.616;1.460;2022-07-30T08:20:14;1.20;;;1.10;;
68054;SDS011;54841;43.616;1.460;2022-07-30T08:22:41;3.67;;;0.90;;
68054;SDS011;54841;43.616;1.460;2022-07-30T08:25:06;3.28;;;0.93;;
68054;SDS011;54841;43.616;1.460;2022-07-30T08:27:32;1.25;;;0.70;;
68054;SDS011;54841;43.616;1.460;2022-07-30T08:30:01;1.58;;;0.80;;
68054;SDS011;54841;43.616;1.460;2022-07-30T08:32:30;1.23;;;0.90;;
68054;SDS011;54841;43.616;1.460;2022-07-30T08:34:55;1.27;;;0.90;;
68054;SDS011;54841;43.616;1.460;2022-07-30T08:37:20;1.10;;;0.70;;
68054;SDS011;54841;43.616;1.460;2022-07-30T08:39:46;1.23;;;0.80;;
68054;SDS011;54841;43.616;1.460;2022-07-30T08:42:12;1.42;;;0.90;;
68054;SDS011;54841;43.616;1.460;2022-07-30T08:44:38;3.22;;;0.90;;
68054;SDS011;54841;43.616;1.460;2022-07-30T08:47:04;2.15;;;0.85;;
68054;SDS011;54841;43.616;1.460;2022-07-30T08:49:31;1.05;;;0.60;;
68054;SDS011;54841;43.616;1.460;2022-07-30T08:51:57;1.85;;;0.60;;
68054;SDS011;54841;43.616;1.460;2022-07-30T08:54:23;1.77;;;0.90;;
68054;SDS011;54841;43.616;1.460;2022-07-30T08:56:48;1.20;;;0.90;;
68054;SDS011;54841;43.616;1.460;2022-07-30T08:59:15;2.17;;;0.80;;
68054;SDS011;54841;43.616;1.460;2022-07-30T09:01:41;2.00;;;0.80;;
68054;SDS011;54841;43.616;1.460;2022-07-30T09:04:06;1.77;;;0.60;;
68054;SDS011;54841;43.616;1.460;2022-07-30T09:06:32;0.90;;;0.80;;
68054;SDS011;54841;43.616;1.460;2022-07-30T09:08:57;0.95;;;0.77;;
68054;SDS011;54841;43.616;1.460;2022-07-30T09:11:23;2.20;;;0.73;;
68054;SDS011;54841;43.616;1.460;2022-07-30T09:13:48;2.13;;;0.65;;
68054;SDS011;54841;43.616;1.460;2022-07-30T09:16:22;2.78;;;0.80;;
68054;SDS011;54841;43.616;1.460;2022-07-30T09:18:48;1.08;;;0.80;;
68054;SDS011;54841;43.616;1.460;2022-07-30T09:21:36;3.80;;;0.90;;
68054;SDS011;54841;43.616;1.460;2022-07-30T09:24:01;0.85;;;0.60;;
68054;SDS011;54841;43.616;1.460;2022-07-30T09:26:50;2.92;;;0.80;;
68054;SDS011;54841;43.616;1.460;2022-07-30T09:29:26;1.88;;;0.90;;
68054;SDS011;54841;43.616;1.460;2022-07-30T09:31:53;2.25;;;0.80;;
68054;SDS011;54841;43.616;1.460;2022-07-30T09:34:32;1.45;;;0.82;;
68054;SDS011;54841;43.616;1.460;2022-07-30T09:37:00;2.03;;;0.73;;
68054;SDS011;54841;43.616;1.460;2022-07-30T09:42:15;4.15;;;0.93;;
68054;SDS011;54841;43.616;1.460;2022-07-30T09:44:44;2.10;;;0.90;;
68054;SDS011;54841;43.616;1.460;2022-07-30T09:47:28;1.52;;;0.77;;
68054;SDS011;54841;43.616;1.460;2022-07-30T09:52:34;0.90;;;0.75;;
68054;SDS011;54841;43.616;1.460;2022-07-30T09:55:01;2.05;;;0.85;;
68054;SDS011;54841;43.616;1.460;2022-07-30T09:57:26;2.05;;;0.90;;
68054;SDS011;54841;43.616;1.460;2022-07-30T09:59:52;1.42;;;0.70;;
68054;SDS011;54841;43.616;1.460;2022-07-30T10:02:18;0.98;;;0.80;;
68054;SDS011;54841;43.616;1.460;2022-07-30T10:04:44;1.95;;;0.85;;
68054;SDS011;54841;43.616;1.460;2022-07-30T10:07:19;3.58;;;0.90;;
68054;SDS011;54841;43.616;1.460;2022-07-30T10:09:48;1.80;;;0.70;;
68054;SDS011;54841;43.616;1.460;2022-07-30T10:12:14;1.13;;;0.88;;
68054;SDS011;54841;43.616;1.460;2022-07-30T10:14:43;2.55;;;0.80;;
68054;SDS011;54841;43.616;1.460;2022-07-30T10:17:11;1.42;;;0.90;;
68054;SDS011;54841;43.616;1.460;2022-07-30T10:19:36;2.03;;;0.80;;
68054;SDS011;54841;43.616;1.460;2022-07-30T10:22:03;1.30;;;0.80;;
68054;SDS011;54841;43.616;1.460;2022-07-30T10:24:29;1.50;;;0.90;;
68054;SDS011;54841;43.616;1.460;2022-07-30T10:26:56;1.63;;;0.70;;
68054;SDS011;54841;43.616;1.460;2022-07-30T10:29:21;1.27;;;0.82;;
68054;SDS011;54841;43.616;1.460;2022-07-30T10:31:48;0.93;;;0.77;;
68054;SDS011;54841;43.616;1.460;2022-07-30T10:34:15;1.50;;;0.90;;
68054;SDS011;54841;43.616;1.460;2022-07-30T10:36:42;1.00;;;0.73;;
68054;SDS011;54841;43.616;1.460;2022-07-30T10:39:09;1.48;;;1.10;;
68054;SDS011;54841;43.616;1.460;2022-07-30T10:41:54;0.82;;;0.80;;
68054;SDS011;54841;43.616;1.460;2022-07-30T10:47:15;2.67;;;1.08;;
68054;SDS011;54841;43.616;1.460;2022-07-30T10:50:02;4.80;;;1.00;;
68054;SDS011;54841;43.616;1.460;2022-07-30T10:55:29;2.15;;;1.10;;
68054;SDS011;54841;43.616;1.460;2022-07-30T10:58:00;1.10;;;0.90;;
68054;SDS011;54841;43.616;1.460;2022-07-30T11:00:26;1.15;;;0.90;;
68054;SDS011;54841;43.616;1.460;2022-07-30T11:03:12;2.40;;;1.17;;
68054;SDS011;54841;43.616;1.460;2022-07-30T11:05:40;2.80;;;1.02;;
68054;SDS011;54841;43.616;1.460;2022-07-30T11:10:56;2.63;;;1.00;;
68054;SDS011;54841;43.616;1.460;2022-07-30T11:16:12;2.33;;;0.80;;
68054;SDS011;54841;43.616;1.460;2022-07-30T11:19:20;1.88;;;1.08;;
68054;SDS011;54841;43.616;1.460;2022-07-30T11:21:28;1.25;;;0.93;;
68054;SDS011;54841;43.616;1.460;2022-07-30T11:23:53;1.85;;;1.08;;
68054;SDS011;54841;43.616;1.460;2022-07-30T11:29:02;2.25;;;1.00;;
68054;SDS011;54841;43.616;1.460;2022-07-30T11:31:32;1.95;;;0.70;;
68054;SDS011;54841;43.616;1.460;2022-07-30T11:37:04;2.27;;;1.03;;
68054;SDS011;54841;43.616;1.460;2022-07-30T11:42:32;1.92;;;1.02;;
68054;SDS011;54841;43.616;1.460;2022-07-30T11:47:42;1.38;;;1.08;;
68054;SDS011;54841;43.616;1.460;2022-07-30T11:50:25;2.67;;;1.23;;
68054;SDS011;54841;43.616;1.460;2022-07-30T11:52:58;2.85;;;1.30;;
68054;SDS011;54841;43.616;1.460;2022-07-30T11:55:33;1.70;;;1.30;;
68054;SDS011;54841;43.616;1.460;2022-07-30T11:58:06;1.33;;;0.90;;
68054;SDS011;54841;43.616;1.460;2022-07-30T12:00:35;3.58;;;1.10;;
68054;SDS011;54841;43.616;1.460;2022-07-30T12:03:07;1.83;;;1.00;;
68054;SDS011;54841;43.616;1.460;2022-07-30T12:05:36;2.67;;;1.00;;
68054;SDS011;54841;43.616;1.460;2022-07-30T12:08:02;2.22;;;1.10;;
68054;SDS011;54841;43.616;1.460;2022-07-30T12:10:29;1.25;;;1.05;;
68054;SDS011;54841;43.616;1.460;2022-07-30T12:13:08;1.80;;;1.08;;
68054;SDS011;54841;43.616;1.460;2022-07-30T12:15:39;2.55;;;1.00;;
68054;SDS011;54841;43.616;1.460;2022-07-30T12:18:05;1.77;;;1.10;;
68054;SDS011;54841;43.616;1.460;2022-07-30T12:20:32;1.48;;;1.00;;
68054;SDS011;54841;43.616;1.460;2022-07-30T12:22:57;1.10;;;1.00;;
68054;SDS011;54841;43.616;1.460;2022-07-30T12:25:23;1.83;;;1.30;;
68054;SDS011;54841;43.616;1.460;2022-07-30T12:27:49;2.80;;;1.20;;
68054;SDS011;54841;43.616;1.460;2022-07-30T12:30:15;3.15;;;1.13;;
68054;SDS011;54841;43.616;1.460;2022-07-30T12:32:42;2.70;;;1.10;;
68054;SDS011;54841;43.616;1.460;2022-07-30T12:35:08;2.70;;;1.35;;
68054;SDS011;54841;43.616;1.460;2022-07-30T12:37:34;1.77;;;1.50;;
68054;SDS011;54841;43.616;1.460;2022-07-30T12:40:06;1.60;;;1.10;;
68054;SDS011;54841;43.616;1.460;2022-07-30T12:42:49;4.20;;;1.13;;
68054;SDS011;54841;43.616;1.460;2022-07-30T12:45:31;1.33;;;0.90;;
68054;SDS011;54841;43.616;1.460;2022-07-30T12:48:00;3.20;;;1.40;;
68054;SDS011;54841;43.616;1.460;2022-07-30T12:50:26;2.03;;;1.30;;
68054;SDS011;54841;43.616;1.460;2022-07-30T12:52:52;1.27;;;0.95;;
68054;SDS011;54841;43.616;1.460;2022-07-30T12:55:33;1.73;;;1.20;;
68054;SDS011;54841;43.616;1.460;2022-07-30T12:58:03;1.10;;;0.88;;
68054;SDS011;54841;43.616;1.460;2022-07-30T13:00:44;1.58;;;0.93;;
68054;SDS011;54841;43.616;1.460;2022-07-30T13:03:27;1.25;;;1.10;;
68054;SDS011;54841;43.616;1.460;2022-07-30T13:05:54;1.20;;;1.08;;
68054;SDS011;54841;43.616;1.460;2022-07-30T13:08:20;3.33;;;1.27;;
68054;SDS011;54841;43.616;1.460;2022-07-30T13:11:25;1.30;;;1.08;;
68054;SDS011;54841;43.616;1.460;2022-07-30T13:14:00;2.13;;;1.10;;
68054;SDS011;54841;43.616;1.460;2022-07-30T13:16:29;2.70;;;1.02;;
68054;SDS011;54841;43.616;1.460;2022-07-30T13:18:55;1.90;;;1.10;;
68054;SDS011;54841;43.616;1.460;2022-07-30T13:21:21;2.55;;;1.33;;
68054;SDS011;54841;43.616;1.460;2022-07-30T13:23:47;1.50;;;1.23;;
68054;SDS011;54841;43.616;1.460;2022-07-30T13:26:12;1.40;;;1.27;;
68054;SDS011;54841;43.616;1.460;2022-07-30T13:28:38;2.13;;;1.25;;
68054;SDS011;54841;43.616;1.460;2022-07-30T13:31:03;1.80;;;1.40;;
68054;SDS011;54841;43.616;1.460;2022-07-30T13:33:29;1.20;;;1.10;;
68054;SDS011;54841;43.616;1.460;2022-07-30T13:35:55;1.27;;;1.00;;
68054;SDS011;54841;43.616;1.460;2022-07-30T13:38:21;1.75;;;1.17;;
68054;SDS011;54841;43.616;1.460;2022-07-30T13:40:46;1.55;;;1.08;;
68054;SDS011;54841;43.616;1.460;2022-07-30T13:43:12;1.52;;;1.42;;
68054;SDS011;54841;43.616;1.460;2022-07-30T13:45:38;2.33;;;1.27;;
68054;SDS011;54841;43.616;1.460;2022-07-30T13:48:03;1.42;;;1.15;;
68054;SDS011;54841;43.616;1.460;2022-07-30T13:50:29;1.95;;;1.25;;
68054;SDS011;54841;43.616;1.460;2022-07-30T13:52:54;1.05;;;1.05;;
68054;SDS011;54841;43.616;1.460;2022-07-30T13:55:19;2.28;;;1.30;;
68054;SDS011;54841;43.616;1.460;2022-07-30T13:57:45;1.58;;;1.30;;
68054;SDS011;54841;43.616;1.460;2022-07-30T14:00:11;1.90;;;1.20;;
68054;SDS011;54841;43.616;1.460;2022-07-30T14:02:37;1.50;;;1.35;;
68054;SDS011;54841;43.616;1.460;2022-07-30T14:05:02;3.78;;;1.40;;
68054;SDS011;54841;43.616;1.460;2022-07-30T14:07:34;1.30;;;1.20;;
68054;SDS011;54841;43.616;1.460;2022-07-30T14:10:00;2.03;;;1.38;;
68054;SDS011;54841;43.616;1.460;2022-07-30T14:12:27;1.50;;;1.40;;
68054;SDS011;54841;43.616;1.460;2022-07-30T14:14:52;3.72;;;1.23;;
68054;SDS011;54841;43.616;1.460;2022-07-30T14:17:17;1.30;;;1.20;;
68054;SDS011;54841;43.616;1.460;2022-07-30T14:19:43;1.55;;;1.10;;
68054;SDS011;54841;43.616;1.460;2022-07-30T14:22:09;1.92;;;1.40;;
68054;SDS011;54841;43.616;1.460;2022-07-30T14:24:34;1.45;;;1.15;;
68054;SDS011;54841;43.616;1.460;2022-07-30T14:27:00;1.35;;;1.25;;
68054;SDS011;54841;43.616;1.460;2022-07-30T14:29:25;2.70;;;1.45;;
68054;SDS011;54841;43.616;1.460;2022-07-30T14:31:51;1.35;;;1.25;;
68054;SDS011;54841;43.616;1.460;2022-07-30T14:34:16;2.55;;;1.15;;
68054;SDS011;54841;43.616;1.460;2022-07-30T14:36:43;1.48;;;1.30;;
68054;SDS011;54841;43.616;1.460;2022-07-30T14:39:09;2.75;;;1.20;;
68054;SDS011;54841;43.616;1.460;2022-07-30T14:41:34;3.22;;;1.20;;
68054;SDS011;54841;43.616;1.460;2022-07-30T14:44:01;1.50;;;1.27;;
68054;SDS011;54841;43.616;1.460;2022-07-30T14:46:27;3.85;;;1.40;;
68054;SDS011;54841;43.616;1.460;2022-07-30T14:48:52;2.70;;;1.20;;
68054;SDS011;54841;43.616;1.460;2022-07-30T14:51:18;1.35;;;1.10;;
68054;SDS011;54841;43.616;1.460;2022-07-30T14:53:43;1.95;;;1.20;;
68054;SDS011;54841;43.616;1.460;2022-07-30T14:56:09;1.30;;;1.20;;
68054;SDS011;54841;43.616;1.460;2022-07-30T14:58:34;1.70;;;1.35;;
68054;SDS011;54841;43.616;1.460;2022-07-30T15:01:00;2.58;;;1.25;;
68054;SDS011;54841;43.616;1.460;2022-07-30T15:03:25;1.10;;;1.10;;
68054;SDS011;54841;43.616;1.460;2022-07-30T15:05:51;1.13;;;1.02;;
68054;SDS011;54841;43.616;1.460;2022-07-30T15:08:16;1.20;;;1.02;;
68054;SDS011;54841;43.616;1.460;2022-07-30T15:10:42;1.25;;;1.13;;
68054;SDS011;54841;43.616;1.460;2022-07-30T15:13:07;1.15;;;1.05;;
68054;SDS011;54841;43.616;1.460;2022-07-30T15:15:32;0.93;;;0.88;;
68054;SDS011;54841;43.616;1.460;2022-07-30T15:17:59;1.30;;;1.17;;